Time;durP1;ratioP1;P1;durP2;ratioP2;P2;SDS_P1;SDS_P2;PMS_P1;PMS_P2;Temp;Humidity;BMP_temperature;BMP_pressure;BME280_temperature;BME280_humidity;BME280_pressure;Samples;Min_cycle;Max_cycle;Signal;HPM_P1;HPM_P2
2023/04/15 00:00:16;;;;;;;;;;;7.60;99.90;;;;;;5056061;28;19938;-46
2023/04/15 00:02:44;;;;;;;;;;;7.60;99.90;;;;;;5034762;28;20043;-44
2023/04/15 00:05:12;;;;;;;;;;;7.50;99.90;;;;;;5057096;28;19959;-41
2023/04/15 00:07:39;;;;;;;;;;;7.50;99.90;;;;;;5039453;28;19955;-42
2023/04/15 00:10:06;;;;;;;;;;;7.50;99.90;;;;;;5064638;28;19945;-43
2023/04/15 00:12:33;;;;;;;;;;;7.40;99.90;;;;;;5057922;28;20034;-41
2023/04/15 00:15:00;;;;;;;;;;;7.40;99.90;;;;;;5054799;28;20024;-45
2023/04/15 00:17:26;;;;;;;;;;;7.40;99.90;;;;;;5056459;28;19998;-42
2023/04/15 00:19:53;;;;;;;;;;;7.40;99.90;;;;;;5056016;28;19945;-45
2023/04/15 00:22:21;;;;;;;;;;;7.30;99.90;;;;;;5053215;28;19939;-43
2023/04/15 00:24:48;;;;;;;;;;;7.30;99.90;;;;;;5064148;28;19942;-44
2023/04/15 00:27:15;;;;;;;;;;;7.30;99.90;;;;;;5052350;28;19984;-45
2023/04/15 00:29:42;;;;;;;;;;;7.20;99.90;;;;;;5056134;28;20010;-44
2023/04/15 00:32:09;;;;;;;;;;;7.20;99.90;;;;;;5053324;28;19936;-43
2023/04/15 00:34:35;;;;;;;;;;;7.20;99.90;;;;;;5053109;28;19921;-42
2023/04/15 00:37:02;;;;;;;;;;;7.10;99.90;;;;;;5060734;28;20296;-44
2023/04/15 00:39:30;;;;;;;;;;;7.10;99.90;;;;;;5045709;28;19938;-42
2023/04/15 00:41:57;;;;;;;;;;;7.10;99.90;;;;;;5067378;28;19943;-45
2023/04/15 00:44:23;;;;;;;;;;;7.00;99.90;;;;;;5043302;28;20006;-44
2023/04/15 00:46:50;;;;;;;;;;;7.00;99.90;;;;;;5039973;28;20418;-44
2023/04/15 00:49:18;;;;;;;;;;;6.90;99.90;;;;;;5040525;28;20436;-45
2023/04/15 00:51:44;;;;;;;;;;;6.90;99.90;;;;;;5053207;28;19973;-41
2023/04/15 00:54:11;;;;;;;;;;;6.80;99.90;;;;;;5060656;28;19934;-41
2023/04/15 00:56:39;;;;;;;;;;;6.80;99.90;;;;;;5045546;28;19943;-42
2023/04/15 00:59:06;;;;;;;;;;;6.80;99.90;;;;;;5052605;28;20349;-43
2023/04/15 01:01:34;;;;;;;;;;;6.70;99.90;;;;;;5044237;28;20045;-41
2023/04/15 01:04:00;;;;;;;;;;;6.70;99.90;;;;;;5039147;28;20286;-42
2023/04/15 01:06:27;;;;;;;;;;;6.70;99.90;;;;;;5056378;28;20021;-41
2023/04/15 01:08:54;;;;;;;;;;;6.70;99.90;;;;;;5053248;28;19988;-43
2023/04/15 01:11:20;;;;;;;;;;;6.60;99.90;;;;;;5044293;28;19937;-44
2023/04/15 01:13:48;;;;;;;;;;;6.60;99.90;;;;;;5055131;28;19942;-44
2023/04/15 01:16:15;;;;;;;;;;;6.50;99.90;;;;;;5040773;28;20456;-43
2023/04/15 01:18:42;;;;;;;;;;;6.50;99.90;;;;;;5058752;28;19999;-43
2023/04/15 01:21:09;;;;;;;;;;;6.50;99.90;;;;;;5053204;28;20028;-45
2023/04/15 01:23:37;;;;;;;;;;;6.40;99.90;;;;;;5048797;28;19937;-44
2023/04/15 01:26:05;;;;;;;;;;;6.40;99.90;;;;;;5048991;28;19958;-41
2023/04/15 01:28:32;;;;;;;;;;;6.40;99.90;;;;;;5046370;28;19947;-43
2023/04/15 01:31:06;;;;;;;;;;;6.40;99.90;;;;;;5037895;28;20385;-43
2023/04/15 01:33:33;;;;;;;;;;;6.30;99.90;;;;;;5064742;28;19977;-41
2023/04/15 01:36:00;;;;;;;;;;;6.30;99.90;;;;;;5048807;28;19985;-45
2023/04/15 01:38:27;;;;;;;;;;;6.30;99.90;;;;;;5053861;28;20432;-39
2023/04/15 01:40:53;;;;;;;;;;;6.20;99.90;;;;;;5050121;28;19988;-44
2023/04/15 01:43:21;;;;;;;;;;;6.10;99.90;;;;;;5067288;28;19990;-43
2023/04/15 01:45:48;;;;;;;;;;;6.20;99.90;;;;;;5054791;28;19945;-43
2023/04/15 01:48:15;;;;;;;;;;;6.10;99.90;;;;;;5050494;28;19953;-45
2023/04/15 01:50:42;;;;;;;;;;;6.10;99.90;;;;;;5062275;28;19931;-47
2023/04/15 01:53:09;;;;;;;;;;;6.10;99.90;;;;;;5037032;28;20397;-41
2023/04/15 01:55:36;;;;;;;;;;;6.00;99.90;;;;;;5033590;28;20248;-42
2023/04/15 01:58:03;;;;;;;;;;;6.00;99.90;;;;;;5055807;28;19931;-42
2023/04/15 02:00:31;;;;;;;;;;;6.00;99.90;;;;;;5052373;28;20347;-45
2023/04/15 02:02:58;;;;;;;;;;;6.00;99.90;;;;;;5057593;28;19933;-45
2023/04/15 02:05:24;;;;;;;;;;;5.90;99.90;;;;;;5058368;28;19991;-43
2023/04/15 02:07:52;;;;;;;;;;;5.90;99.90;;;;;;5060036;28;19920;-44
2023/04/15 02:10:19;;;;;;;;;;;5.90;99.90;;;;;;5048338;28;20333;-43
2023/04/15 02:12:45;;;;;;;;;;;5.90;99.90;;;;;;5050775;28;19937;-44
2023/04/15 02:15:12;;;;;;;;;;;5.90;99.90;;;;;;5050405;28;19931;-44
2023/04/15 02:17:44;;;;;;;;;;;5.80;99.90;;;;;;5065224;28;20105;-42
2023/04/15 02:20:11;;;;;;;;;;;5.80;99.90;;;;;;5052391;28;20310;-43
2023/04/15 02:22:38;;;;;;;;;;;5.80;99.90;;;;;;5050471;28;20422;-45
2023/04/15 02:25:05;;;;;;;;;;;5.80;99.90;;;;;;5051283;28;20020;-45
2023/04/15 02:27:31;;;;;;;;;;;5.80;99.90;;;;;;5054142;28;20550;-43
2023/04/15 02:29:58;;;;;;;;;;;5.70;99.90;;;;;;5061547;28;20028;-47
2023/04/15 02:32:25;;;;;;;;;;;5.70;99.90;;;;;;5053591;28;20403;-41
2023/04/15 02:34:53;;;;;;;;;;;5.70;99.90;;;;;;5058086;28;20340;-43
2023/04/15 02:37:19;;;;;;;;;;;5.80;99.90;;;;;;5054765;28;20367;-44
2023/04/15 02:39:46;;;;;;;;;;;5.70;99.90;;;;;;5053985;28;19972;-45
2023/04/15 02:42:13;;;;;;;;;;;5.70;99.90;;;;;;5052504;28;20010;-40
2023/04/15 02:44:39;;;;;;;;;;;5.60;99.90;;;;;;5053812;28;19939;-43
2023/04/15 02:47:06;;;;;;;;;;;5.70;99.90;;;;;;5060691;28;19984;-43
2023/04/15 02:49:33;;;;;;;;;;;5.60;99.90;;;;;;5054282;28;20057;-44
2023/04/15 02:52:00;;;;;;;;;;;5.60;99.90;;;;;;5056003;28;19969;-45
2023/04/15 02:54:28;;;;;;;;;;;5.60;99.90;;;;;;5063401;28;20367;-45
2023/04/15 02:56:55;;;;;;;;;;;5.60;99.90;;;;;;5047502;28;20017;-45
2023/04/15 02:59:22;;;;;;;;;;;5.60;99.90;;;;;;5056259;28;20007;-46
2023/04/15 03:01:48;;;;;;;;;;;5.60;99.90;;;;;;5050274;28;20428;-44
2023/04/15 03:04:15;;;;;;;;;;;5.60;99.90;;;;;;5053547;28;20015;-44
2023/04/15 03:06:42;;;;;;;;;;;5.50;99.90;;;;;;5051750;28;19935;-44
2023/04/15 03:09:10;;;;;;;;;;;5.50;99.90;;;;;;5064659;28;20434;-44
2023/04/15 03:11:39;;;;;;;;;;;5.50;99.90;;;;;;5076577;28;19942;-42
2023/04/15 03:14:06;;;;;;;;;;;5.50;99.90;;;;;;5048516;28;20279;-45
2023/04/15 03:16:32;;;;;;;;;;;5.40;99.90;;;;;;5045567;28;20015;-45
2023/04/15 03:18:59;;;;;;;;;;;5.40;99.90;;;;;;5044827;28;19941;-44
2023/04/15 03:21:26;;;;;;;;;;;5.40;99.90;;;;;;5056762;28;20413;-46
2023/04/15 03:23:53;;;;;;;;;;;5.40;99.90;;;;;;5053312;28;19935;-46
2023/04/15 03:26:28;;;;;;;;;;;5.40;99.90;;;;;;5050247;28;20322;-47
2023/04/15 03:28:54;;;;;;;;;;;5.30;99.90;;;;;;5055181;28;19952;-44
2023/04/15 03:31:21;;;;;;;;;;;5.30;99.90;;;;;;5055711;28;19932;-45
2023/04/15 03:33:48;;;;;;;;;;;5.30;99.90;;;;;;5051302;28;19946;-43
2023/04/15 03:36:14;;;;;;;;;;;5.30;99.90;;;;;;5056152;28;19966;-44
2023/04/15 03:38:41;;;;;;;;;;;5.30;99.90;;;;;;5055148;28;19981;-43
2023/04/15 03:41:08;;;;;;;;;;;5.20;99.90;;;;;;5050524;28;20516;-46
2023/04/15 03:43:36;;;;;;;;;;;5.20;99.90;;;;;;5043691;28;19978;-47
2023/04/15 03:46:02;;;;;;;;;;;5.30;99.90;;;;;;5046519;28;19980;-46
2023/04/15 03:48:29;;;;;;;;;;;5.20;99.90;;;;;;5055412;28;19996;-46
2023/04/15 03:50:57;;;;;;;;;;;5.20;99.90;;;;;;5051907;28;20353;-44
2023/04/15 03:53:23;;;;;;;;;;;5.20;99.90;;;;;;5066359;28;19974;-45
2023/04/15 03:55:50;;;;;;;;;;;5.20;99.90;;;;;;5061084;28;19937;-43
2023/04/15 03:58:17;;;;;;;;;;;5.20;99.90;;;;;;5069245;28;19937;-40
2023/04/15 04:00:45;;;;;;;;;;;5.10;99.90;;;;;;5042428;28;19966;-43
2023/04/15 04:03:12;;;;;;;;;;;5.10;99.90;;;;;;5057237;28;19972;-44
2023/04/15 04:05:40;;;;;;;;;;;5.20;99.90;;;;;;5053099;28;20268;-43
2023/04/15 04:08:06;;;;;;;;;;;5.10;99.90;;;;;;5067796;28;20051;-44
2023/04/15 04:10:33;;;;;;;;;;;5.10;99.90;;;;;;5055553;28;20002;-42
2023/04/15 04:13:00;;;;;;;;;;;5.10;99.90;;;;;;5066587;28;19985;-44
2023/04/15 04:15:26;;;;;;;;;;;5.10;99.90;;;;;;5060604;28;19939;-46
2023/04/15 04:17:54;;;;;;;;;;;5.00;99.90;;;;;;5043610;28;20005;-44
2023/04/15 04:20:21;;;;;;;;;;;5.00;99.90;;;;;;5058690;28;19941;-43
2023/04/15 04:22:48;;;;;;;;;;;5.00;99.90;;;;;;5062996;28;19958;-45
2023/04/15 04:25:15;;;;;;;;;;;5.00;99.90;;;;;;5052658;28;19976;-45
2023/04/15 04:27:41;;;;;;;;;;;5.00;99.90;;;;;;5060648;28;19939;-45
2023/04/15 04:30:08;;;;;;;;;;;5.00;99.90;;;;;;5053334;28;19959;-43
2023/04/15 04:32:53;;;;;;;;;;;5.00;99.90;;;;;;5068496;28;20007;-44
2023/04/15 04:35:21;;;;;;;;;;;5.00;99.90;;;;;;5055121;28;19940;-43
2023/04/15 04:37:48;;;;;;;;;;;5.00;99.90;;;;;;5057083;28;19986;-43
2023/04/15 04:40:15;;;;;;;;;;;4.90;99.90;;;;;;5058569;28;20343;-43
2023/04/15 04:42:42;;;;;;;;;;;4.90;99.90;;;;;;5061090;28;19960;-42
2023/04/15 04:45:09;;;;;;;;;;;4.90;99.90;;;;;;5062778;28;20031;-44
2023/04/15 04:47:35;;;;;;;;;;;4.90;99.90;;;;;;5058547;28;19987;-45
2023/04/15 04:50:02;;;;;;;;;;;4.80;99.90;;;;;;5057712;28;20472;-44
2023/04/15 04:52:30;;;;;;;;;;;4.80;99.90;;;;;;5066754;28;19942;-47
2023/04/15 04:54:57;;;;;;;;;;;4.80;99.90;;;;;;5066666;28;19991;-44
2023/04/15 04:57:23;;;;;;;;;;;4.70;99.90;;;;;;5040646;28;19940;-47
2023/04/15 04:59:50;;;;;;;;;;;4.70;99.90;;;;;;5064673;28;19986;-46
2023/04/15 05:02:17;;;;;;;;;;;4.60;99.90;;;;;;5045930;28;19940;-45
2023/04/15 05:04:43;;;;;;;;;;;4.60;99.90;;;;;;5034855;28;19990;-45
2023/04/15 05:07:10;;;;;;;;;;;4.70;99.90;;;;;;5044722;28;20443;-46
2023/04/15 05:09:38;;;;;;;;;;;4.60;99.90;;;;;;5049513;28;19950;-48
2023/04/15 05:12:05;;;;;;;;;;;4.60;99.90;;;;;;5058286;28;19972;-46
2023/04/15 05:14:32;;;;;;;;;;;4.60;99.90;;;;;;5058862;28;20374;-47
2023/04/15 05:16:58;;;;;;;;;;;4.60;99.90;;;;;;5051502;28;19960;-44
2023/04/15 05:19:25;;;;;;;;;;;4.70;99.90;;;;;;5051722;28;19975;-50
2023/04/15 05:21:52;;;;;;;;;;;4.70;99.90;;;;;;5055615;28;19987;-48
2023/04/15 05:24:18;;;;;;;;;;;4.70;99.90;;;;;;5038494;28;19939;-44
2023/04/15 05:26:46;;;;;;;;;;;4.70;99.90;;;;;;5047052;28;20001;-44
2023/04/15 05:29:13;;;;;;;;;;;4.70;99.90;;;;;;5049705;28;19959;-46
2023/04/15 05:31:40;;;;;;;;;;;4.80;99.90;;;;;;5050918;28;20414;-46
2023/04/15 05:34:06;;;;;;;;;;;4.80;99.90;;;;;;5052198;28;19971;-45
2023/04/15 05:36:33;;;;;;;;;;;4.80;99.90;;;;;;5054911;28;19939;-47
2023/04/15 05:39:00;;;;;;;;;;;4.80;99.90;;;;;;5051973;28;20376;-50
2023/04/15 05:41:27;;;;;;;;;;;4.80;99.90;;;;;;5043276;28;20385;-45
2023/04/15 05:43:55;;;;;;;;;;;4.90;99.90;;;;;;5055209;28;19931;-40
2023/04/15 05:46:22;;;;;;;;;;;4.90;99.90;;;;;;5061748;28;19971;-47
2023/04/15 05:48:48;;;;;;;;;;;5.00;99.90;;;;;;5053780;28;19928;-45
2023/04/15 05:51:15;;;;;;;;;;;5.00;99.90;;;;;;5060595;28;20041;-45
2023/04/15 05:53:42;;;;;;;;;;;5.10;99.90;;;;;;5044951;28;19935;-47
2023/04/15 05:56:08;;;;;;;;;;;5.10;99.90;;;;;;5054480;28;19931;-42
2023/04/15 05:58:35;;;;;;;;;;;5.10;99.90;;;;;;5040358;28;20022;-49
2023/04/15 06:01:04;;;;;;;;;;;5.20;99.90;;;;;;5048557;28;20309;-48
2023/04/15 06:03:31;;;;;;;;;;;5.20;99.90;;;;;;5048998;28;20387;-48
2023/04/15 06:05:57;;;;;;;;;;;5.30;99.90;;;;;;5035795;28;20362;-45
2023/04/15 06:08:24;;;;;;;;;;;5.40;99.90;;;;;;5039491;28;19939;-44
2023/04/15 06:10:50;;;;;;;;;;;5.40;99.90;;;;;;5054622;28;20040;-45
2023/04/15 06:13:17;;;;;;;;;;;5.50;99.90;;;;;;5032829;28;19993;-44
2023/04/15 06:15:44;;;;;;;;;;;5.50;99.90;;;;;;5039764;28;19980;-45
2023/04/15 06:18:12;;;;;;;;;;;5.60;99.90;;;;;;5060934;28;19957;-49
2023/04/15 06:20:38;;;;;;;;;;;5.70;99.90;;;;;;5041242;28;19933;-50
2023/04/15 06:23:05;;;;;;;;;;;5.80;99.90;;;;;;5050059;28;19949;-45
2023/04/15 06:25:32;;;;;;;;;;;5.90;99.90;;;;;;5046014;28;19981;-45
2023/04/15 06:27:59;;;;;;;;;;;5.90;99.90;;;;;;5048111;28;20014;-48
2023/04/15 06:30:25;;;;;;;;;;;6.00;99.90;;;;;;5045999;28;20321;-45
2023/04/15 06:32:52;;;;;;;;;;;6.10;99.90;;;;;;5050203;28;19936;-40
2023/04/15 06:35:20;;;;;;;;;;;6.20;99.90;;;;;;5045804;28;19992;-44
2023/04/15 06:37:46;;;;;;;;;;;6.30;99.90;;;;;;5052635;28;19980;-45
2023/04/15 06:40:13;;;;;;;;;;;6.40;99.90;;;;;;5046685;28;19974;-44
2023/04/15 06:42:40;;;;;;;;;;;6.50;99.90;;;;;;5043574;28;20029;-41
2023/04/15 06:45:08;;;;;;;;;;;6.70;99.90;;;;;;5047220;28;19944;-47
2023/04/15 06:47:34;;;;;;;;;;;6.70;99.90;;;;;;5047109;28;20318;-44
2023/04/15 06:50:02;;;;;;;;;;;6.90;99.90;;;;;;5049650;28;20485;-47
2023/04/15 06:52:30;;;;;;;;;;;6.90;99.90;;;;;;5041263;28;20027;-46
2023/04/15 06:54:58;;;;;;;;;;;7.00;99.90;;;;;;5050095;28;20388;-43
2023/04/15 06:57:25;;;;;;;;;;;7.10;99.90;;;;;;5050225;28;19933;-47
2023/04/15 06:59:53;;;;;;;;;;;7.20;99.90;;;;;;5052801;28;20291;-43
2023/04/15 07:02:20;;;;;;;;;;;7.20;99.90;;;;;;5048461;28;19942;-43
2023/04/15 07:04:46;;;;;;;;;;;7.30;99.90;;;;;;5038198;28;19951;-45
2023/04/15 07:07:14;;;;;;;;;;;7.40;99.90;;;;;;5050794;28;20476;-47
2023/04/15 07:09:42;;;;;;;;;;;7.50;99.90;;;;;;5057808;28;19950;-46
2023/04/15 07:12:08;;;;;;;;;;;7.60;99.90;;;;;;5061590;28;19937;-43
2023/04/15 07:14:36;;;;;;;;;;;7.70;99.90;;;;;;5061594;28;20379;-47
2023/04/15 07:17:02;;;;;;;;;;;7.80;99.90;;;;;;5053768;28;20044;-48
2023/04/15 07:19:29;;;;;;;;;;;7.90;99.90;;;;;;5056882;28;19999;-46
2023/04/15 07:21:56;;;;;;;;;;;8.00;99.90;;;;;;5058905;28;19960;-44
2023/04/15 07:24:25;;;;;;;;;;;8.10;99.90;;;;;;5052508;28;19985;-42
2023/04/15 07:26:55;;;;;;;;;;;8.20;99.90;;;;;;5066680;28;19985;-48
2023/04/15 07:29:21;;;;;;;;;;;8.30;99.90;;;;;;5055317;28;19957;-44
2023/04/15 07:31:48;;;;;;;;;;;8.40;99.90;;;;;;5063290;28;19931;-44
2023/04/15 07:34:15;;;;;;;;;;;8.40;99.90;;;;;;5065580;28;20300;-43
2023/04/15 07:36:41;;;;;;;;;;;8.50;99.90;;;;;;5059423;28;20443;-43
2023/04/15 07:39:08;;;;;;;;;;;8.50;99.90;;;;;;5064772;28;19982;-46
2023/04/15 07:41:35;;;;;;;;;;;8.60;99.90;;;;;;5067074;28;19943;-47
2023/04/15 07:44:04;;;;;;;;;;;8.60;99.90;;;;;;5053435;28;20429;-45
2023/04/15 07:46:30;;;;;;;;;;;8.70;99.90;;;;;;5052405;28;20295;-43
2023/04/15 07:48:57;;;;;;;;;;;8.70;99.90;;;;;;5046210;28;19957;-40
2023/04/15 07:51:24;;;;;;;;;;;8.80;99.90;;;;;;5037834;28;20396;-46
2023/04/15 07:53:51;;;;;;;;;;;8.80;99.90;;;;;;5046909;28;19920;-43
2023/04/15 07:56:18;;;;;;;;;;;8.90;99.90;;;;;;5067815;28;19941;-47
2023/04/15 07:58:45;;;;;;;;;;;9.00;99.90;;;;;;5054611;28;19933;-43
2023/04/15 08:01:13;;;;;;;;;;;9.00;99.90;;;;;;5058003;28;19933;-44
2023/04/15 08:03:39;;;;;;;;;;;9.00;99.90;;;;;;5056048;28;19997;-42
2023/04/15 08:06:06;;;;;;;;;;;9.00;99.90;;;;;;5054878;28;19948;-45
2023/04/15 08:08:33;;;;;;;;;;;9.10;99.90;;;;;;5051036;28;19936;-43
2023/04/15 08:11:00;;;;;;;;;;;9.20;99.90;;;;;;5056458;28;19997;-43
2023/04/15 08:13:26;;;;;;;;;;;9.20;99.90;;;;;;5053400;28;20310;-46
2023/04/15 08:15:53;;;;;;;;;;;9.30;99.90;;;;;;5051068;28;20021;-44
2023/04/15 08:18:21;;;;;;;;;;;9.30;99.90;;;;;;5052740;28;20039;-42
2023/04/15 08:20:48;;;;;;;;;;;9.40;99.90;;;;;;5067410;28;19934;-43
2023/04/15 08:23:15;;;;;;;;;;;9.40;99.90;;;;;;5055312;28;19942;-46
2023/04/15 08:25:41;;;;;;;;;;;9.40;99.90;;;;;;5052386;28;20449;-45
2023/04/15 08:28:08;;;;;;;;;;;9.40;99.90;;;;;;5058082;28;20023;-43
2023/04/15 08:30:35;;;;;;;;;;;9.40;99.90;;;;;;5059296;28;19996;-43
2023/04/15 08:33:02;;;;;;;;;;;9.50;99.90;;;;;;5071694;28;19934;-45
2023/04/15 08:35:30;;;;;;;;;;;9.50;99.90;;;;;;5062939;28;19936;-45
2023/04/15 08:37:57;;;;;;;;;;;9.70;99.90;;;;;;5057716;28;20024;-44
2023/04/15 08:40:23;;;;;;;;;;;9.80;99.90;;;;;;5051200;28;20394;-42
2023/04/15 08:42:50;;;;;;;;;;;10.00;99.90;;;;;;5066745;28;19937;-46
2023/04/15 08:45:17;;;;;;;;;;;10.20;99.90;;;;;;5061395;28;19931;-46
2023/04/15 08:47:43;;;;;;;;;;;10.30;99.90;;;;;;5058653;28;19997;-42
2023/04/15 08:50:10;;;;;;;;;;;10.30;99.90;;;;;;5050472;28;19968;-42
2023/04/15 08:52:38;;;;;;;;;;;10.30;99.90;;;;;;5064477;28;19936;-41
2023/04/15 08:55:05;;;;;;;;;;;10.20;99.90;;;;;;5065893;28;20022;-43
2023/04/15 08:57:32;;;;;;;;;;;10.20;99.90;;;;;;5056812;28;20268;-43
2023/04/15 08:59:59;;;;;;;;;;;10.20;99.90;;;;;;5067279;28;20381;-42
2023/04/15 09:02:26;;;;;;;;;;;10.10;99.90;;;;;;5042479;28;20005;-43
2023/04/15 09:04:52;;;;;;;;;;;10.10;99.90;;;;;;5061164;28;19936;-41
2023/04/15 09:07:19;;;;;;;;;;;10.00;99.90;;;;;;5049257;28;20023;-42
2023/04/15 09:09:47;;;;;;;;;;;10.00;99.90;;;;;;5054981;28;19933;-42
2023/04/15 09:12:15;;;;;;;;;;;9.90;99.90;;;;;;5050292;28;19942;-40
2023/04/15 09:14:42;;;;;;;;;;;9.80;99.90;;;;;;5049210;28;19941;-41
2023/04/15 09:17:10;;;;;;;;;;;9.80;99.90;;;;;;5053728;28;19959;-42
2023/04/15 09:19:37;;;;;;;;;;;9.80;99.90;;;;;;5049387;28;19962;-40
2023/04/15 09:22:03;;;;;;;;;;;9.80;99.90;;;;;;5061380;28;19985;-42
2023/04/15 09:24:41;;;;;;;;;;;9.80;99.90;;;;;;5056702;28;19933;-42
2023/04/15 09:27:10;;;;;;;;;;;9.80;99.90;;;;;;5038165;28;20388;-47
2023/04/15 09:29:36;;;;;;;;;;;9.70;99.90;;;;;;5043623;28;19935;-45
2023/04/15 09:32:10;;;;;;;;;;;9.70;99.90;;;;;;5046733;28;19946;-43
2023/04/15 09:34:36;;;;;;;;;;;9.70;99.90;;;;;;5043884;28;19953;-45
2023/04/15 09:37:03;;;;;;;;;;;9.60;99.90;;;;;;5054468;28;19942;-40
2023/04/15 09:39:36;;;;;;;;;;;9.70;99.90;;;;;;5046494;28;19940;-42
2023/04/15 09:42:06;;;;;;;;;;;9.60;99.90;;;;;;5048733;28;19979;-41
2023/04/15 09:44:34;;;;;;;;;;;9.60;99.90;;;;;;5049912;28;20033;-43
2023/04/15 09:47:01;;;;;;;;;;;9.50;99.90;;;;;;5049052;28;19964;-42
2023/04/15 09:49:28;;;;;;;;;;;9.50;99.90;;;;;;5046362;28;20011;-42
2023/04/15 09:51:58;;;;;;;;;;;9.50;99.90;;;;;;5048596;28;20042;-42
2023/04/15 09:54:25;;;;;;;;;;;9.50;99.90;;;;;;5048717;28;19990;-42
2023/04/15 09:56:51;;;;;;;;;;;9.60;99.90;;;;;;5050257;28;19979;-45
2023/04/15 09:59:18;;;;;;;;;;;9.70;99.90;;;;;;5053538;28;20019;-41
2023/04/15 10:01:46;;;;;;;;;;;9.70;99.90;;;;;;5051944;28;19933;-44
2023/04/15 10:04:13;;;;;;;;;;;9.70;99.90;;;;;;5054171;28;20379;-46
2023/04/15 10:06:39;;;;;;;;;;;9.80;99.90;;;;;;5051540;28;19937;-43
2023/04/15 10:09:06;;;;;;;;;;;9.80;99.90;;;;;;5054515;28;19982;-46
2023/04/15 10:11:33;;;;;;;;;;;9.80;99.90;;;;;;5051485;28;20501;-44
2023/04/15 10:13:59;;;;;;;;;;;9.80;99.90;;;;;;5050957;28;19934;-43
2023/04/15 10:16:27;;;;;;;;;;;9.70;99.90;;;;;;5051932;28;20000;-43
2023/04/15 10:18:55;;;;;;;;;;;9.70;99.90;;;;;;5054392;28;19961;-41
2023/04/15 10:21:22;;;;;;;;;;;9.70;99.90;;;;;;5053252;28;19937;-41
2023/04/15 10:23:49;;;;;;;;;;;9.80;99.90;;;;;;5045935;28;19942;-44
2023/04/15 10:26:16;;;;;;;;;;;9.90;99.90;;;;;;5059382;28;20378;-45
2023/04/15 10:28:43;;;;;;;;;;;9.90;99.90;;;;;;5054740;28;20044;-42
2023/04/15 10:31:09;;;;;;;;;;;9.90;99.90;;;;;;5050938;28;20035;-41
2023/04/15 10:33:37;;;;;;;;;;;9.90;99.90;;;;;;5050228;28;19976;-41
2023/04/15 10:36:06;;;;;;;;;;;10.00;99.90;;;;;;5061934;28;19931;-46
2023/04/15 10:38:33;;;;;;;;;;;10.00;99.90;;;;;;5050976;28;20309;-42
2023/04/15 10:41:12;;;;;;;;;;;10.10;99.90;;;;;;5051819;28;20064;-41
2023/04/15 10:43:38;;;;;;;;;;;10.10;99.90;;;;;;5043566;28;19960;-41
2023/04/15 10:46:05;;;;;;;;;;;10.10;99.90;;;;;;5050778;28;21263;-44
2023/04/15 10:48:32;;;;;;;;;;;10.10;99.90;;;;;;5054420;28;19960;-43
2023/04/15 10:51:00;;;;;;;;;;;10.10;99.90;;;;;;5055557;28;19961;-44
2023/04/15 10:53:29;;;;;;;;;;;10.10;99.90;;;;;;5055939;28;20351;-41
2023/04/15 10:55:56;;;;;;;;;;;10.10;99.90;;;;;;5055715;28;19960;-42
2023/04/15 10:58:23;;;;;;;;;;;10.10;99.90;;;;;;5055471;28;20073;-44
2023/04/15 11:00:51;;;;;;;;;;;10.10;99.90;;;;;;5055730;28;19941;-43
2023/04/15 11:03:17;;;;;;;;;;;10.10;99.90;;;;;;5054122;28;19990;-42
2023/04/15 11:05:50;;;;;;;;;;;10.10;99.90;;;;;;5054658;28;20420;-43
2023/04/15 11:08:17;;;;;;;;;;;10.10;99.90;;;;;;5055589;28;19937;-44
2023/04/15 11:10:54;;;;;;;;;;;10.10;99.90;;;;;;5054275;28;19986;-45
2023/04/15 11:13:32;;;;;;;;;;;10.10;99.90;;;;;;5054108;28;19938;-41
2023/04/15 11:16:01;;;;;;;;;;;10.10;99.90;;;;;;5047702;28;19960;-44
2023/04/15 11:18:32;;;;;;;;;;;10.10;99.90;;;;;;5053981;28;19929;-42
2023/04/15 11:21:00;;;;;;;;;;;10.10;99.90;;;;;;5054632;28;20062;-42
2023/04/15 11:23:33;;;;;;;;;;;10.10;99.90;;;;;;5055244;28;19950;-44
2023/04/15 11:26:01;;;;;;;;;;;10.20;99.90;;;;;;5054379;28;19934;-43
2023/04/15 11:28:28;;;;;;;;;;;10.20;99.90;;;;;;5036048;28;19937;-46
2023/04/15 11:30:55;;;;;;;;;;;10.20;99.90;;;;;;5047512;28;20005;-46
2023/04/15 11:33:22;;;;;;;;;;;10.20;99.90;;;;;;5053700;28;19944;-43
2023/04/15 11:35:49;;;;;;;;;;;10.10;99.90;;;;;;5053774;28;20416;-44
2023/04/15 11:38:15;;;;;;;;;;;10.10;99.90;;;;;;5054998;28;19941;-41
2023/04/15 11:40:42;;;;;;;;;;;10.10;99.90;;;;;;5052878;28;19937;-40
2023/04/15 11:43:11;;;;;;;;;;;10.10;99.90;;;;;;5054480;28;19995;-41
2023/04/15 11:45:38;;;;;;;;;;;10.10;99.90;;;;;;5070126;28;20003;-42
2023/04/15 11:48:08;;;;;;;;;;;10.10;99.90;;;;;;5050156;28;19951;-46
2023/04/15 11:50:34;;;;;;;;;;;10.10;99.90;;;;;;5052269;28;20345;-42
2023/04/15 11:53:02;;;;;;;;;;;10.10;99.90;;;;;;5054624;28;19957;-43
2023/04/15 11:55:28;;;;;;;;;;;10.10;99.90;;;;;;5053017;28;19942;-42
2023/04/15 11:58:12;;;;;;;;;;;10.10;99.90;;;;;;5051159;28;20370;-46
2023/04/15 12:00:39;;;;;;;;;;;10.10;99.90;;;;;;5065497;28;19942;-41
2023/04/15 12:03:20;;;;;;;;;;;10.00;99.90;;;;;;5049540;28;19985;-44
2023/04/15 12:06:03;;;;;;;;;;;10.10;99.90;;;;;;5048138;28;19943;-42
2023/04/15 12:08:44;;;;;;;;;;;10.10;99.90;;;;;;5058324;28;19982;-42
2023/04/15 12:11:11;;;;;;;;;;;10.10;99.90;;;;;;5056526;28;20047;-43
2023/04/15 12:13:39;;;;;;;;;;;10.10;99.90;;;;;;5067711;28;19985;-45
2023/04/15 12:16:06;;;;;;;;;;;10.10;99.90;;;;;;5069207;28;20365;-41
2023/04/15 12:18:33;;;;;;;;;;;10.10;99.90;;;;;;5065180;28;19961;-43
2023/04/15 12:21:04;;;;;;;;;;;10.20;99.90;;;;;;5063244;28;20449;-42
2023/04/15 12:23:31;;;;;;;;;;;10.20;99.90;;;;;;5050389;28;20003;-41
2023/04/15 12:25:57;;;;;;;;;;;10.30;99.90;;;;;;5062696;28;20415;-43
2023/04/15 12:28:24;;;;;;;;;;;10.30;99.90;;;;;;5060010;28;20365;-47
2023/04/15 12:30:52;;;;;;;;;;;10.30;99.90;;;;;;5052936;28;19942;-43
2023/04/15 12:33:19;;;;;;;;;;;10.30;99.90;;;;;;5046879;28;20030;-42
2023/04/15 12:35:45;;;;;;;;;;;10.30;99.90;;;;;;5045770;28;20016;-42
2023/04/15 12:38:12;;;;;;;;;;;10.30;99.90;;;;;;5051930;28;19949;-42
2023/04/15 12:40:38;;;;;;;;;;;10.30;99.90;;;;;;5053609;28;20308;-41
2023/04/15 12:43:05;;;;;;;;;;;10.20;99.90;;;;;;5052521;28;19968;-44
2023/04/15 12:45:32;;;;;;;;;;;10.20;99.90;;;;;;5053338;28;19991;-42
2023/04/15 12:48:00;;;;;;;;;;;10.20;99.90;;;;;;5046229;28;19938;-41
2023/04/15 12:50:27;;;;;;;;;;;10.20;99.90;;;;;;5064278;28;20306;-43
2023/04/15 12:52:53;;;;;;;;;;;10.20;99.90;;;;;;5053198;28;20041;-47
2023/04/15 12:55:20;;;;;;;;;;;10.10;99.90;;;;;;5051950;28;19963;-46
2023/04/15 12:57:47;;;;;;;;;;;10.00;99.90;;;;;;5051108;28;19938;-45
2023/04/15 13:00:14;;;;;;;;;;;10.00;99.90;;;;;;5053294;28;19941;-41
2023/04/15 13:02:42;;;;;;;;;;;10.00;99.90;;;;;;5051793;28;19994;-41
2023/04/15 13:05:10;;;;;;;;;;;10.00;99.90;;;;;;5051715;28;19934;-41
2023/04/15 13:07:37;;;;;;;;;;;10.10;99.90;;;;;;5053184;28;19937;-46
2023/04/15 13:10:04;;;;;;;;;;;10.10;99.90;;;;;;5052995;28;20393;-40
2023/04/15 13:12:31;;;;;;;;;;;10.20;99.90;;;;;;5057571;28;19956;-43
2023/04/15 13:14:58;;;;;;;;;;;10.20;99.90;;;;;;5047797;28;20050;-46
2023/04/15 13:17:25;;;;;;;;;;;10.20;99.90;;;;;;5049157;28;19959;-43
2023/04/15 13:19:51;;;;;;;;;;;10.10;99.90;;;;;;5051900;28;19937;-44
2023/04/15 13:22:19;;;;;;;;;;;10.10;99.90;;;;;;5049506;28;20019;-41
2023/04/15 13:24:46;;;;;;;;;;;10.10;99.90;;;;;;5055444;28;19932;-43
2023/04/15 13:27:13;;;;;;;;;;;10.10;99.90;;;;;;5047506;28;19964;-43
2023/04/15 13:29:40;;;;;;;;;;;10.10;99.90;;;;;;5039173;28;19952;-45
2023/04/15 13:32:06;;;;;;;;;;;10.00;99.90;;;;;;5049911;28;20048;-41
2023/04/15 13:34:33;;;;;;;;;;;10.00;99.90;;;;;;5054058;28;19976;-42
2023/04/15 13:37:00;;;;;;;;;;;10.00;99.90;;;;;;5053625;28;20034;-43
2023/04/15 13:39:28;;;;;;;;;;;10.00;99.90;;;;;;5049606;28;19938;-41
2023/04/15 13:41:54;;;;;;;;;;;9.90;99.90;;;;;;5050239;28;20394;-41
2023/04/15 13:44:21;;;;;;;;;;;9.90;99.90;;;;;;5045928;28;19951;-42
2023/04/15 13:46:48;;;;;;;;;;;9.80;99.90;;;;;;5051514;28;19934;-44
2023/04/15 13:49:14;;;;;;;;;;;9.80;99.90;;;;;;5051849;28;20003;-41
2023/04/15 13:51:41;;;;;;;;;;;9.80;99.90;;;;;;5045687;28;20502;-45
2023/04/15 13:54:07;;;;;;;;;;;9.70;99.90;;;;;;5063272;28;19939;-42
2023/04/15 13:56:35;;;;;;;;;;;9.70;99.90;;;;;;5046815;28;19996;-41
2023/04/15 13:59:02;;;;;;;;;;;9.70;99.90;;;;;;5032471;28;19967;-41
2023/04/15 14:01:29;;;;;;;;;;;9.70;99.90;;;;;;5048016;28;19935;-42
2023/04/15 14:03:55;;;;;;;;;;;9.70;99.90;;;;;;5062517;28;19993;-45
2023/04/15 14:06:22;;;;;;;;;;;9.60;99.90;;;;;;5047533;28;20099;-42
2023/04/15 14:08:49;;;;;;;;;;;9.60;99.90;;;;;;5051222;28;19990;-43
2023/04/15 14:11:15;;;;;;;;;;;9.60;99.90;;;;;;5047843;28;20480;-42
2023/04/15 14:13:43;;;;;;;;;;;9.60;99.90;;;;;;5050504;28;20071;-42
2023/04/15 14:16:10;;;;;;;;;;;9.50;99.90;;;;;;5050729;28;20033;-43
2023/04/15 14:18:37;;;;;;;;;;;9.50;99.90;;;;;;5049347;28;20016;-41
2023/04/15 14:21:05;;;;;;;;;;;9.50;99.90;;;;;;5041364;28;20354;-43
2023/04/15 14:23:31;;;;;;;;;;;9.60;99.90;;;;;;5032753;28;19939;-42
2023/04/15 14:25:58;;;;;;;;;;;9.50;99.90;;;;;;5043965;28;20029;-40